createdAt,value
2023-04-02T00:01:18.902Z,99627.13
2023-04-02T00:03:53.720Z,99628.94
2023-04-02T00:06:32.589Z,99626.91
2023-04-02T00:09:21.231Z,99631.38
2023-04-02T00:11:50.832Z,99618.22
2023-04-02T00:14:24.266Z,99633.13
2023-04-02T00:16:53.835Z,99616.94
2023-04-02T00:19:30.834Z,99632.78
2023-04-02T00:21:59.158Z,99624.03
2023-04-02T00:24:27.115Z,99625.00
2023-04-02T00:26:55.522Z,99625.94
2023-04-02T00:29:23.110Z,99624.16
2023-04-02T00:31:52.593Z,99621.84
2023-04-02T00:34:30.875Z,99623.03
2023-04-02T00:36:58.912Z,99624.50
2023-04-02T00:39:29.370Z,99618.19
2023-04-02T00:42:06.881Z,99621.63
2023-04-02T00:44:38.039Z,99627.56
2023-04-02T00:47:20.370Z,99631.22
2023-04-02T00:49:52.082Z,99623.00
2023-04-02T00:52:23.661Z,99621.53
2023-04-02T00:55:13.725Z,99634.87
2023-04-02T00:57:45.223Z,99631.19
2023-04-02T01:00:23.948Z,99637.19
2023-04-02T01:03:30.443Z,99632.12
2023-04-02T01:06:11.249Z,99630.25
2023-04-02T01:09:01.737Z,99637.97
2023-04-02T01:11:32.340Z,99633.03
2023-04-02T01:14:13.233Z,99633.97
2023-04-02T01:17:06.067Z,99625.38
2023-04-02T01:19:45.554Z,99630.28
2023-04-02T01:22:23.006Z,99627.25
2023-04-02T01:24:50.630Z,99621.78
2023-04-02T01:27:49.857Z,99617.94
2023-04-02T01:30:18.258Z,99617.00
2023-04-02T01:32:46.275Z,99621.41
2023-04-02T01:35:14.033Z,99623.03
2023-04-02T01:37:49.391Z,99621.84
2023-04-02T01:40:23.302Z,99620.69
2023-04-02T01:42:53.632Z,99628.88
2023-04-02T01:45:22.910Z,99626.72
2023-04-02T01:47:51.321Z,99631.25
2023-04-02T01:50:31.500Z,99632.94
2023-04-02T01:53:02.177Z,99621.47
2023-04-02T01:55:57.092Z,99625.72
2023-04-02T01:58:31.768Z,99613.63
2023-04-02T02:01:02.949Z,99631.22
2023-04-02T02:03:31.499Z,99630.53
2023-04-02T02:05:59.492Z,99626.22
2023-04-02T02:08:56.905Z,99626.00
2023-04-02T02:11:27.711Z,99629.88
2023-04-02T02:13:58.239Z,99629.03
2023-04-02T02:16:27.528Z,99623.22
2023-04-02T02:18:59.414Z,99621.53
2023-04-02T02:21:32.943Z,99611.81
2023-04-02T02:24:01.607Z,99621.47
2023-04-02T02:26:29.842Z,99616.53
2023-04-02T02:28:59.740Z,99614.91
2023-04-02T02:31:33.233Z,99622.59
2023-04-02T02:34:06.283Z,99626.75
2023-04-02T02:36:40.158Z,99624.38
2023-04-02T02:39:17.018Z,99628.53
2023-04-02T02:41:49.616Z,99624.38
2023-04-02T02:44:33.025Z,99626.75
2023-04-02T02:47:10.180Z,99631.16
2023-04-02T02:49:43.551Z,99624.28
2023-04-02T02:52:21.611Z,99628.37
2023-04-02T02:54:58.232Z,99628.44
2023-04-02T02:57:32.495Z,99624.94
2023-04-02T03:00:01.761Z,99617.50
2023-04-02T03:02:32.217Z,99635.00
2023-04-02T03:05:02.894Z,99626.47
2023-04-02T03:07:31.652Z,99637.63
2023-04-02T03:10:23.258Z,99634.66
2023-04-02T03:13:12.532Z,99634.91
2023-04-02T03:16:17.998Z,99632.19
2023-04-02T03:19:11.668Z,99632.53
2023-04-02T03:21:54.624Z,99628.97
2023-04-02T03:24:49.789Z,99637.94
2023-04-02T03:27:32.827Z,99637.69
2023-04-02T03:30:10.728Z,99632.94
2023-04-02T03:32:40.937Z,99633.78
2023-04-02T03:35:18.961Z,99631.84
2023-04-02T03:37:52.723Z,99643.87
2023-04-02T03:40:27.107Z,99644.63
2023-04-02T03:43:00.890Z,99642.94
2023-04-02T03:45:42.422Z,99639.09
2023-04-02T03:48:16.353Z,99647.56
2023-04-02T03:50:50.376Z,99653.25
2023-04-02T03:53:18.073Z,99656.13
2023-04-02T03:55:46.330Z,99660.56
2023-04-02T03:58:37.210Z,99660.44
2023-04-02T04:01:21.488Z,99660.34
2023-04-02T04:03:51.995Z,99670.06
2023-04-02T04:06:29.023Z,99662.81
2023-04-02T04:09:07.704Z,99669.81
2023-04-02T04:11:37.887Z,99670.91
2023-04-02T04:14:24.897Z,99678.47
2023-04-02T04:17:15.553Z,99670.75
2023-04-02T04:19:55.005Z,99689.09
2023-04-02T04:22:31.814Z,99685.62
2023-04-02T04:25:21.254Z,99674.38
2023-04-02T04:27:58.401Z,99681.47
2023-04-02T04:30:34.953Z,99691.62
2023-04-02T04:33:05.942Z,99687.16
2023-04-02T04:35:40.317Z,99693.94
2023-04-02T04:38:21.829Z,99692.06
2023-04-02T04:40:55.066Z,99691.75
2023-04-02T04:43:48.403Z,99697.75
2023-04-02T04:46:20.754Z,99700.81
2023-04-02T04:49:01.001Z,99696.37
2023-04-02T04:51:42.247Z,99697.25
2023-04-02T04:54:12.720Z,99706.75
2023-04-02T04:56:45.823Z,99692.12
2023-04-02T04:59:40.286Z,99706.66
2023-04-02T05:02:17.841Z,99702.34
2023-04-02T05:04:50.856Z,99705.41
2023-04-02T05:07:45.178Z,99706.25
2023-04-02T05:10:19.611Z,99701.03
2023-04-02T05:13:00.717Z,99705.50
2023-04-02T05:15:50.577Z,99702.50
2023-04-02T05:18:31.857Z,99702.28
2023-04-02T05:21:14.150Z,99709.84
2023-04-02T05:23:51.295Z,99715.78
2023-04-02T05:26:21.320Z,99718.06
2023-04-02T05:29:08.213Z,99710.13
2023-04-02T05:31:46.738Z,99715.22
2023-04-02T05:34:14.864Z,99715.38
2023-04-02T05:36:46.551Z,99725.63
2023-04-02T05:39:21.450Z,99721.31
2023-04-02T05:42:11.123Z,99723.75
2023-04-02T05:44:49.560Z,99722.00
2023-04-02T05:47:21.544Z,99720.97
2023-04-02T05:50:08.586Z,99728.66
2023-04-02T05:52:43.896Z,99730.34
2023-04-02T05:55:12.287Z,99726.13
2023-04-02T05:57:49.691Z,99728.66
2023-04-02T06:00:36.166Z,99736.53
2023-04-02T06:03:08.398Z,99736.00
2023-04-02T06:05:40.331Z,99745.59
2023-04-02T06:08:11.942Z,99742.72
2023-04-02T06:11:08.711Z,99742.63
2023-04-02T06:13:38.228Z,99747.56
2023-04-02T06:16:06.991Z,99746.62
2023-04-02T06:18:36.145Z,99743.66
2023-04-02T06:21:05.404Z,99735.78
2023-04-02T06:23:50.139Z,99750.16
2023-04-02T06:26:32.539Z,99742.47
2023-04-02T06:29:19.466Z,99753.31
2023-04-02T06:31:51.868Z,99755.78
2023-04-02T06:34:22.529Z,99753.31
2023-04-02T06:36:54.890Z,99755.59
2023-04-02T06:39:25.148Z,99760.66
2023-04-02T06:42:01.450Z,99765.44
2023-04-02T06:44:35.325Z,99777.25
2023-04-02T06:47:29.283Z,99777.94
2023-04-02T06:50:13.804Z,99776.66
2023-04-02T06:52:54.068Z,99781.81
2023-04-02T06:55:35.564Z,99785.75
2023-04-02T06:58:03.528Z,99789.66
2023-04-02T07:00:46.440Z,99779.34
2023-04-02T07:03:33.972Z,99782.34
2023-04-02T07:06:02.960Z,99779.69
2023-04-02T07:08:31.635Z,99793.97
2023-04-02T07:10:59.904Z,99795.81
2023-04-02T07:13:27.686Z,99794.03
2023-04-02T07:15:56.594Z,99790.97
2023-04-02T07:18:29.411Z,99800.81
2023-04-02T07:20:57.753Z,99804.13
2023-04-02T07:23:26.174Z,99809.59
2023-04-02T07:25:55.381Z,99808.53
2023-04-02T07:28:23.308Z,99813.44
2023-04-02T07:30:51.417Z,99809.41
2023-04-02T07:33:21.597Z,99816.84
2023-04-02T07:35:50.779Z,99817.81
2023-04-02T07:38:18.304Z,99812.25
2023-04-02T07:40:45.923Z,99805.25
2023-04-02T07:43:14.777Z,99818.63
2023-04-02T07:45:42.236Z,99821.81
2023-04-02T07:48:12.952Z,99821.19
2023-04-02T07:50:41.081Z,99828.03
2023-04-02T07:53:27.311Z,99824.75
2023-04-02T07:55:56.694Z,99832.87
2023-04-02T07:58:24.135Z,99836.31
2023-04-02T08:00:55.748Z,99834.44
2023-04-02T08:03:23.847Z,99835.03
2023-04-02T08:05:56.142Z,99828.25
2023-04-02T08:08:25.582Z,99838.03
2023-04-02T08:10:54.565Z,99831.13
2023-04-02T08:13:22.074Z,99836.59
2023-04-02T08:15:49.885Z,99831.78
2023-04-02T08:18:17.396Z,99838.50
2023-04-02T08:20:44.872Z,99841.16
2023-04-02T08:23:15.512Z,99842.47
2023-04-02T08:25:42.896Z,99841.28
2023-04-02T08:28:10.555Z,99836.00
2023-04-02T08:30:38.639Z,99843.22
2023-04-02T08:33:06.560Z,99843.00
2023-04-02T08:35:34.780Z,99841.37
2023-04-02T08:38:03.265Z,99849.53
2023-04-02T08:40:39.048Z,99853.12
2023-04-02T08:43:37.513Z,99847.53
2023-04-02T08:46:11.850Z,99853.44
2023-04-02T08:48:44.495Z,99861.59
2023-04-02T08:51:23.387Z,99855.78
2023-04-02T08:53:54.495Z,99849.94
2023-04-02T08:56:33.991Z,99863.56
2023-04-02T08:59:19.114Z,99867.88
2023-04-02T09:01:55.015Z,99864.94
2023-04-02T09:04:24.676Z,99863.66
2023-04-02T09:06:54.428Z,99866.53
2023-04-02T09:09:22.706Z,99868.31
2023-04-02T09:12:00.892Z,99869.69
2023-04-02T09:14:44.805Z,99873.06
2023-04-02T09:17:23.876Z,99870.47
2023-04-02T09:20:17.234Z,99874.03
2023-04-02T09:22:53.555Z,99876.94
2023-04-02T09:25:26.936Z,99867.00
2023-04-02T09:27:57.423Z,99871.78
2023-04-02T09:30:53.065Z,99874.16
2023-04-02T09:33:40.615Z,99873.28
2023-04-02T09:36:18.382Z,99864.84
2023-04-02T09:39:19.146Z,99871.91
2023-04-02T09:41:55.748Z,99874.19
2023-04-02T09:44:31.190Z,99873.34
2023-04-02T09:47:06.822Z,99858.66
2023-04-02T09:49:37.063Z,99864.03
2023-04-02T09:52:08.950Z,99868.12
2023-04-02T09:54:42.799Z,99872.37
2023-04-02T09:57:23.596Z,99872.75
2023-04-02T10:00:32.741Z,99865.97
2023-04-02T10:03:18.649Z,99871.31
2023-04-02T10:05:47.061Z,99866.13
2023-04-02T10:08:28.186Z,99866.22
2023-04-02T10:10:58.051Z,99873.16
2023-04-02T10:13:29.992Z,99870.75
2023-04-02T10:16:07.515Z,99882.81
2023-04-02T10:18:40.150Z,99879.91
2023-04-02T10:21:11.113Z,99875.81
2023-04-02T10:23:38.984Z,99878.78
2023-04-02T10:26:20.764Z,99882.00
2023-04-02T10:29:13.105Z,99882.53
2023-04-02T10:32:08.916Z,99879.59
2023-04-02T10:34:55.703Z,99883.38
2023-04-02T10:37:29.561Z,99880.19
2023-04-02T10:40:00.520Z,99875.50
2023-04-02T10:42:27.911Z,99874.62
2023-04-02T10:44:59.881Z,99859.97
2023-04-02T10:47:41.142Z,99868.56
2023-04-02T10:50:38.311Z,99874.00
2023-04-02T10:53:17.089Z,99871.19
2023-04-02T10:55:48.684Z,99867.25
2023-04-02T10:58:25.070Z,99875.22
2023-04-02T11:00:59.748Z,99872.91
2023-04-02T11:03:41.574Z,99878.06
2023-04-02T11:06:32.947Z,99867.41
2023-04-02T11:09:05.031Z,99871.78
2023-04-02T11:11:38.430Z,99868.31
2023-04-02T11:14:12.328Z,99868.16
2023-04-02T11:16:44.004Z,99876.56
2023-04-02T11:19:15.635Z,99870.66
2023-04-02T11:21:57.175Z,99872.09
2023-04-02T11:24:37.114Z,99867.06
2023-04-02T11:27:10.519Z,99854.50
2023-04-02T11:29:47.124Z,99859.47
2023-04-02T11:32:16.076Z,99858.28
2023-04-02T11:34:51.392Z,99853.63
2023-04-02T11:37:44.667Z,99852.03
2023-04-02T11:40:13.747Z,99837.19
2023-04-02T11:42:42.139Z,99843.50
2023-04-02T11:45:24.583Z,99835.53
2023-04-02T11:48:01.795Z,99840.41
2023-04-02T11:50:43.873Z,99840.41
2023-04-02T11:53:11.762Z,99838.53
2023-04-02T11:56:02.165Z,99831.16
2023-04-02T11:58:54.920Z,99833.41
2023-04-02T12:01:36.209Z,99836.38
2023-04-02T12:04:35.027Z,99839.56
2023-04-02T12:07:52.067Z,99824.66
2023-04-02T12:10:22.698Z,99828.41
2023-04-02T12:12:51.050Z,99821.62
2023-04-02T12:15:34.129Z,99828.75
2023-04-02T12:18:11.803Z,99827.25
2023-04-02T12:20:39.622Z,99831.25
2023-04-02T12:23:17.252Z,99830.38
2023-04-02T12:25:47.074Z,99823.00
2023-04-02T12:28:17.998Z,99820.50
2023-04-02T12:30:47.117Z,99811.44
2023-04-02T12:33:30.460Z,99806.16
2023-04-02T12:36:00.209Z,99794.53
2023-04-02T12:38:30.918Z,99796.91
2023-04-02T12:41:00.788Z,99801.34
2023-04-02T12:43:37.727Z,99794.28
2023-04-02T12:46:07.826Z,99794.09
2023-04-02T12:48:36.407Z,99787.78
2023-04-02T12:51:04.370Z,99794.81
2023-04-02T12:53:39.613Z,99790.63
2023-04-02T12:56:11.092Z,99789.38
2023-04-02T12:58:42.595Z,99796.50
2023-04-02T13:01:19.330Z,99787.66
2023-04-02T13:04:13.586Z,99811.94
2023-04-02T13:06:47.911Z,99800.16
2023-04-02T13:09:34.583Z,99800.44
2023-04-02T13:12:03.187Z,99795.66
2023-04-02T13:14:31.109Z,99797.25
2023-04-02T13:16:58.559Z,99823.41
2023-04-02T13:19:33.653Z,99819.28
2023-04-02T13:22:03.066Z,99829.31
2023-04-02T13:24:32.932Z,99826.41
2023-04-02T13:27:02.105Z,99826.37
2023-04-02T13:29:34.714Z,99828.34
2023-04-02T13:32:07.870Z,99821.50
2023-04-02T13:34:35.386Z,99824.75
2023-04-02T13:37:03.184Z,99827.97
2023-04-02T13:39:30.817Z,99834.22
2023-04-02T13:42:02.928Z,99828.47
2023-04-02T13:44:32.389Z,99840.16
2023-04-02T13:47:00.741Z,99874.09
2023-04-02T13:49:29.063Z,99835.69
2023-04-02T13:52:03.687Z,99844.56
2023-04-02T13:54:51.384Z,99842.31
2023-04-02T13:57:19.236Z,99849.25
2023-04-02T13:59:46.782Z,99852.59
2023-04-02T14:02:17.886Z,99856.25
2023-04-02T14:04:50.938Z,99851.97
2023-04-02T14:07:30.748Z,99858.47
2023-04-02T14:10:11.221Z,99860.97
2023-04-02T14:13:00.437Z,99852.84
2023-04-02T14:15:50.604Z,99850.88
2023-04-02T14:18:30.623Z,99856.91
2023-04-02T14:21:23.044Z,99864.34
2023-04-02T14:24:30.022Z,99850.34
2023-04-02T14:27:09.700Z,99851.09
2023-04-02T14:29:46.717Z,99846.53
2023-04-02T14:32:20.435Z,99846.63
2023-04-02T14:35:04.078Z,99847.47
2023-04-02T14:38:02.653Z,99839.66
2023-04-02T14:40:30.405Z,99845.44
2023-04-02T14:43:02.960Z,99839.75
2023-04-02T14:45:44.485Z,99835.13
2023-04-02T14:48:21.570Z,99836.13
2023-04-02T14:50:52.384Z,99841.19
2023-04-02T14:53:25.394Z,99834.06
2023-04-02T14:55:53.163Z,99850.81
2023-04-02T14:58:32.265Z,99851.00
2023-04-02T15:01:10.993Z,99859.16
2023-04-02T15:03:44.692Z,99873.50
2023-04-02T15:06:17.197Z,99877.22
2023-04-02T15:08:48.336Z,99888.22
2023-04-02T15:11:26.497Z,99876.91
2023-04-02T15:13:54.687Z,99880.06
2023-04-02T15:16:26.799Z,99870.03
2023-04-02T15:18:59.698Z,99864.97
2023-04-02T15:21:37.035Z,99868.69
2023-04-02T15:24:31.026Z,99864.41
2023-04-02T15:27:18.259Z,99868.94
2023-04-02T15:30:11.025Z,99873.75
2023-04-02T15:32:40.599Z,99883.88
2023-04-02T15:35:31.598Z,99876.19
2023-04-02T15:38:08.328Z,99869.19
2023-04-02T15:41:13.556Z,99877.19
2023-04-02T15:43:46.257Z,99882.75
2023-04-02T15:46:50.478Z,99882.91
2023-04-02T15:49:36.093Z,99884.94
2023-04-02T15:52:12.130Z,99879.59
2023-04-02T15:54:54.530Z,99886.91
2023-04-02T15:57:54.529Z,99887.31
2023-04-02T16:00:31.129Z,99895.84
2023-04-02T16:03:24.370Z,99891.59
2023-04-02T16:05:57.988Z,99884.28
2023-04-02T16:08:44.665Z,99888.63
2023-04-02T16:11:14.413Z,99906.38
2023-04-02T16:13:43.137Z,99897.09
2023-04-02T16:16:34.556Z,99903.38
2023-04-02T16:19:23.734Z,99910.44
2023-04-02T16:21:58.907Z,99912.78
2023-04-02T16:24:27.119Z,99910.50
2023-04-02T16:26:57.624Z,99902.59
2023-04-02T16:29:54.869Z,99918.88
2023-04-02T16:33:11.582Z,99916.03
2023-04-02T16:35:51.765Z,99913.97
2023-04-02T16:38:57.746Z,99912.13
2023-04-02T16:41:34.410Z,99926.56
2023-04-02T16:44:36.598Z,99924.81
2023-04-02T16:47:14.464Z,99919.72
2023-04-02T16:49:59.804Z,99930.28
2023-04-02T16:52:41.474Z,99937.06
2023-04-02T16:55:34.080Z,99940.16
2023-04-02T16:58:32.474Z,99962.75
2023-04-02T17:01:19.067Z,99994.41
2023-04-02T17:04:00.714Z,99990.53
2023-04-02T17:06:44.185Z,99986.78
2023-04-02T17:09:16.944Z,99985.16
2023-04-02T17:11:50.288Z,99976.00
2023-04-02T17:14:20.776Z,99973.50
2023-04-02T17:16:51.898Z,99970.25
2023-04-02T17:19:20.983Z,99978.56
2023-04-02T17:21:52.306Z,99972.16
2023-04-02T17:24:26.962Z,99966.62
2023-04-02T17:26:59.941Z,99980.75
2023-04-02T17:29:37.001Z,99998.81
2023-04-02T17:32:10.301Z,100022.56
2023-04-02T17:34:38.053Z,100014.47
2023-04-02T17:37:27.695Z,100023.72
2023-04-02T17:40:08.319Z,100021.56
2023-04-02T17:42:58.460Z,100023.72
2023-04-02T17:45:55.567Z,100031.59
2023-04-02T17:48:35.549Z,100027.31
2023-04-02T17:51:30.309Z,100025.06
2023-04-02T17:54:07.470Z,100031.97
2023-04-02T17:56:44.367Z,100036.00
2023-04-02T17:59:42.608Z,100043.22
2023-04-02T18:02:30.110Z,100048.28
2023-04-02T18:05:14.634Z,100052.16
2023-04-02T18:08:14.467Z,100054.78
2023-04-02T18:10:45.594Z,100063.00
2023-04-02T18:13:39.587Z,100054.28
2023-04-02T18:16:22.816Z,100051.44
2023-04-02T18:19:23.124Z,100061.56
2023-04-02T18:22:06.467Z,100063.19
2023-04-02T18:24:43.058Z,100074.09
2023-04-02T18:27:18.763Z,100081.34
2023-04-02T18:30:09.478Z,100087.84
2023-04-02T18:32:48.216Z,100092.63
2023-04-02T18:35:22.565Z,100102.09
2023-04-02T18:38:12.730Z,100101.87
2023-04-02T18:40:56.847Z,100095.78
2023-04-02T18:43:57.455Z,100102.03
2023-04-02T18:46:48.748Z,100113.12
2023-04-02T18:49:29.553Z,100115.59
2023-04-02T18:52:01.253Z,100114.81
2023-04-02T18:54:42.265Z,100117.53
2023-04-02T18:57:27.388Z,100117.44
2023-04-02T19:00:00.702Z,100112.19
2023-04-02T19:02:31.537Z,100119.22
2023-04-02T19:05:04.165Z,100116.25
2023-04-02T19:07:34.936Z,100120.94
2023-04-02T19:10:12.203Z,100115.25
2023-04-02T19:12:40.018Z,100118.97
2023-04-02T19:15:18.782Z,100116.75
2023-04-02T19:17:51.697Z,100107.50
2023-04-02T19:20:33.061Z,100117.56
2023-04-02T19:23:16.964Z,100118.50
2023-04-02T19:26:12.910Z,100108.88
2023-04-02T19:28:59.699Z,100112.53
2023-04-02T19:31:48.820Z,100114.31
2023-04-02T19:34:38.974Z,100112.75
2023-04-02T19:37:39.179Z,100119.94
2023-04-02T19:40:16.080Z,100129.72
2023-04-02T19:42:47.336Z,100126.66
2023-04-02T19:45:27.114Z,100137.75
2023-04-02T19:47:57.105Z,100130.78
2023-04-02T19:50:25.730Z,100141.50
2023-04-02T19:52:53.530Z,100136.31
2023-04-02T19:55:21.725Z,100146.28
2023-04-02T19:57:49.850Z,100153.56
2023-04-02T20:00:18.524Z,100157.00
2023-04-02T20:02:46.683Z,100159.53
2023-04-02T20:05:14.536Z,100172.63
2023-04-02T20:07:42.432Z,100170.84
2023-04-02T20:10:10.840Z,100170.44
2023-04-02T20:12:38.599Z,100162.09
2023-04-02T20:15:07.434Z,100164.41
2023-04-02T20:17:35.687Z,100161.22
2023-04-02T20:20:04.496Z,100175.13
2023-04-02T20:22:32.361Z,100169.97
2023-04-02T20:25:00.473Z,100183.84
2023-04-02T20:27:28.554Z,100175.13
2023-04-02T20:29:57.063Z,100174.28
2023-04-02T20:32:25.310Z,100188.31
2023-04-02T20:34:54.185Z,100187.41
2023-04-02T20:37:22.028Z,100189.37
2023-04-02T20:39:49.854Z,100183.34
2023-04-02T20:42:17.511Z,100184.19
2023-04-02T20:44:46.110Z,100191.91
2023-04-02T20:47:13.995Z,100193.56
2023-04-02T20:49:41.768Z,100189.16
2023-04-02T20:52:09.722Z,100187.41
2023-04-02T20:54:37.460Z,100188.16
2023-04-02T20:57:04.953Z,100198.00
2023-04-02T20:59:32.427Z,100199.91
2023-04-02T21:02:00.419Z,100200.78
2023-04-02T21:04:28.000Z,100199.16
2023-04-02T21:06:57.161Z,100203.34
2023-04-02T21:09:25.017Z,100205.16
2023-04-02T21:11:52.455Z,100204.44
2023-04-02T21:14:20.023Z,100197.63
2023-04-02T21:16:47.755Z,100201.09
2023-04-02T21:19:15.333Z,100199.28
2023-04-02T21:21:44.866Z,100204.53
2023-04-02T21:24:12.683Z,100208.97
2023-04-02T21:26:41.031Z,100209.69
2023-04-02T21:29:08.849Z,100207.06
2023-04-02T21:31:38.336Z,100216.06
2023-04-02T21:34:07.115Z,100206.78
2023-04-02T21:36:41.107Z,100222.97
2023-04-02T21:39:16.906Z,100222.97
2023-04-02T21:41:46.672Z,100217.66
2023-04-02T21:44:16.347Z,100221.19
2023-04-02T21:46:44.296Z,100224.66
2023-04-02T21:49:14.021Z,100223.81
2023-04-02T21:51:43.109Z,100230.63
2023-04-02T21:54:10.569Z,100233.25
2023-04-02T21:56:40.406Z,100231.47
2023-04-02T21:59:10.283Z,100240.31
2023-04-02T22:01:40.925Z,100248.06
2023-04-02T22:04:11.348Z,100251.44
2023-04-02T22:06:41.044Z,100261.16
2023-04-02T22:09:14.741Z,100246.28
2023-04-02T22:11:45.446Z,100266.19
2023-04-02T22:14:13.811Z,100252.44
2023-04-02T22:16:41.888Z,100253.50
2023-04-02T22:19:12.670Z,100261.56
2023-04-02T22:21:41.418Z,100259.16
2023-04-02T22:24:13.179Z,100258.66
2023-04-02T22:26:41.240Z,100258.03
2023-04-02T22:29:09.273Z,100260.78
2023-04-02T22:31:37.341Z,100251.69
2023-04-02T22:34:06.548Z,100257.78
2023-04-02T22:36:34.746Z,100263.22
2023-04-02T22:39:05.451Z,100265.06
2023-04-02T22:41:33.481Z,100266.53
2023-04-02T22:44:01.718Z,100262.59
2023-04-02T22:46:30.495Z,100264.28
2023-04-02T22:48:58.838Z,100264.84
2023-04-02T22:51:28.088Z,100276.62
2023-04-02T22:53:56.373Z,100281.03
2023-04-02T22:56:31.654Z,100276.28
2023-04-02T22:58:59.589Z,100278.09
2023-04-02T23:01:31.125Z,100280.87
2023-04-02T23:03:59.859Z,100269.84
2023-04-02T23:06:28.400Z,100283.00
2023-04-02T23:08:55.926Z,100290.03
2023-04-02T23:11:25.903Z,100298.03
2023-04-02T23:13:55.751Z,100283.69
2023-04-02T23:16:24.402Z,100294.31
2023-04-02T23:18:52.475Z,100309.50
2023-04-02T23:21:20.903Z,100306.94
2023-04-02T23:23:48.672Z,100306.47
2023-04-02T23:26:18.553Z,100315.69
2023-04-02T23:28:46.343Z,100318.66
2023-04-02T23:31:16.366Z,100308.94
2023-04-02T23:33:44.150Z,100324.00
2023-04-02T23:36:16.731Z,100327.50
2023-04-02T23:38:44.442Z,100328.66
2023-04-02T23:41:14.413Z,100333.97
2023-04-02T23:43:42.268Z,100329.19
2023-04-02T23:46:10.144Z,100317.84
2023-04-02T23:48:38.162Z,100332.72
2023-04-02T23:51:06.834Z,100335.47
2023-04-02T23:53:34.821Z,100326.22
2023-04-02T23:56:02.665Z,100341.09
2023-04-02T23:58:30.550Z,100325.69
